9C8 weather

Evart Municipal Airport
Evart, Michigan, United States

Public forecast

Using degrees Fahrenheit for public forecast. Weather courtesy of forecast.io.

Closest aviation weather report (METAR) to Evart Municipal Airport

Closest report is Roben Hood Airport, 14.3 nm (26.4 km) SW. Retrieved 2019/10/20 08:35 UTC (0 seconds ago):

KRQB 200835Z AUTO 00000KT 10SM OVC070 09/08 A2976 RMK AO2 P0001 T00870080

Closest aviation forecast (TAF) to Evart Municipal Airport

Closest forecast is Manistee Co Blacker Airport, 47.5 nm (87.9 km) WNW. Retrieved 2019/10/20 06:21 UTC (2 hours ago):

TAF KMBL 200520Z 2006/2106 VRB03KT P6SM VCSH OVC060 FM200900 VRB03KT P6SM BKN045 FM201100 VRB04KT P6SM BKN020 FM201300 VRB04KT P6SM BKN150 FM201400 VRB03KT P6SM SCT150 FM201700 VRB04KT P6SM FEW250 FM210300 08005KT P6SM BKN250